createdAt,value
2023-02-28T00:00:53.050Z,58.69
2023-02-28T00:03:19.572Z,58.76
2023-02-28T00:05:46.152Z,58.57
2023-02-28T00:08:14.149Z,58.36
2023-02-28T00:10:40.654Z,58.45
2023-02-28T00:13:07.814Z,58.51
2023-02-28T00:15:34.497Z,58.61
2023-02-28T00:18:01.481Z,58.50
2023-02-28T00:20:28.230Z,58.60
2023-02-28T00:22:56.043Z,58.77
2023-02-28T00:25:25.045Z,58.18
2023-02-28T00:27:51.736Z,58.56
2023-02-28T00:30:24.286Z,57.76
2023-02-28T00:32:51.750Z,58.30
2023-02-28T00:35:18.687Z,58.37
2023-02-28T00:37:45.234Z,58.30
2023-02-28T00:40:13.127Z,58.41
2023-02-28T00:42:40.575Z,58.49
2023-02-28T00:45:08.937Z,58.15
2023-02-28T00:47:35.618Z,58.39
2023-02-28T00:50:02.323Z,58.44
2023-02-28T00:52:28.895Z,58.87
2023-02-28T00:54:55.432Z,58.36
2023-02-28T00:57:22.036Z,58.60
2023-02-28T00:59:48.571Z,58.45
2023-02-28T01:02:15.088Z,58.61
2023-02-28T01:04:41.569Z,58.57
2023-02-28T01:07:08.211Z,58.52
2023-02-28T01:09:34.763Z,58.40
2023-02-28T01:12:01.240Z,58.27
2023-02-28T01:14:27.802Z,58.08
2023-02-28T01:16:54.356Z,58.27
2023-02-28T01:19:20.820Z,57.87
2023-02-28T01:21:47.273Z,58.20
2023-02-28T01:24:13.745Z,57.97
2023-02-28T01:26:40.232Z,58.01
2023-02-28T01:29:06.682Z,58.06
2023-02-28T01:31:33.373Z,58.23
2023-02-28T01:34:00.117Z,58.03
2023-02-28T01:36:26.911Z,58.25
2023-02-28T01:38:53.756Z,57.84
2023-02-28T01:41:26.516Z,57.77
2023-02-28T01:43:54.724Z,57.76
2023-02-28T01:46:21.232Z,58.23
2023-02-28T01:49:10.061Z,57.28
2023-02-28T01:51:40.514Z,58.42
2023-02-28T01:54:14.570Z,57.79
2023-02-28T01:56:53.941Z,57.32
2023-02-28T01:59:27.793Z,57.81
2023-02-28T02:01:55.212Z,58.67
2023-02-28T02:04:24.474Z,58.49
2023-02-28T02:06:51.094Z,58.80
2023-02-28T02:09:17.598Z,58.74
2023-02-28T02:11:46.058Z,58.72
2023-02-28T02:14:18.572Z,58.39
2023-02-28T02:16:58.246Z,57.79
2023-02-28T02:20:04.380Z,57.69
2023-02-28T02:22:48.902Z,57.78
2023-02-28T02:25:24.460Z,57.85
2023-02-28T02:28:10.502Z,58.92
2023-02-28T02:31:07.099Z,57.59
2023-02-28T02:33:33.434Z,58.56
2023-02-28T02:36:06.722Z,58.25
2023-02-28T02:38:39.325Z,58.69
2023-02-28T02:41:34.326Z,57.89
2023-02-28T02:44:16.240Z,58.28
2023-02-28T02:46:46.175Z,58.65
2023-02-28T02:49:27.424Z,57.70
2023-02-28T02:51:55.527Z,58.58
2023-02-28T02:54:29.487Z,58.49
2023-02-28T02:57:00.339Z,58.07
2023-02-28T02:59:29.815Z,58.14
2023-02-28T03:02:00.726Z,57.87
2023-02-28T03:04:33.201Z,57.84
2023-02-28T03:06:59.964Z,58.29
2023-02-28T03:09:27.248Z,58.30
2023-02-28T03:11:57.030Z,58.13
2023-02-28T03:14:47.937Z,57.86
2023-02-28T03:17:20.457Z,58.09
2023-02-28T03:20:09.022Z,57.76
2023-02-28T03:22:44.652Z,57.93
2023-02-28T03:25:32.857Z,58.34
2023-02-28T03:28:22.246Z,57.87
2023-02-28T03:31:11.196Z,57.82
2023-02-28T03:33:43.428Z,58.92
2023-02-28T03:36:18.644Z,59.02
2023-02-28T03:38:55.151Z,59.56
2023-02-28T03:41:25.145Z,59.72
2023-02-28T03:44:06.835Z,58.68
2023-02-28T03:46:40.478Z,59.43
2023-02-28T03:49:23.943Z,59.12
2023-02-28T03:51:53.334Z,59.69
2023-02-28T03:54:26.584Z,59.66
2023-02-28T03:57:02.023Z,59.83
2023-02-28T03:59:37.553Z,59.52
2023-02-28T04:02:04.292Z,59.61
2023-02-28T04:04:31.049Z,60.04
2023-02-28T04:07:06.875Z,59.56
2023-02-28T04:09:33.421Z,60.39
2023-02-28T04:12:00.380Z,60.01
2023-02-28T04:14:27.669Z,60.51
2023-02-28T04:16:54.320Z,60.32
2023-02-28T04:19:21.082Z,60.32
2023-02-28T04:21:52.254Z,59.53
2023-02-28T04:24:24.630Z,59.69
2023-02-28T04:26:56.730Z,59.31
2023-02-28T04:29:28.887Z,59.67
2023-02-28T04:31:58.907Z,59.86
2023-02-28T04:34:27.281Z,59.84
2023-02-28T04:37:11.975Z,59.81
2023-02-28T04:39:40.175Z,59.67
2023-02-28T04:42:06.866Z,59.66
2023-02-28T04:44:33.376Z,59.94
2023-02-28T04:47:00.241Z,59.83
2023-02-28T04:49:26.935Z,59.55
2023-02-28T04:51:54.195Z,59.53
2023-02-28T04:54:20.985Z,59.21
2023-02-28T04:56:51.080Z,59.33
2023-02-28T04:59:17.912Z,59.52
2023-02-28T05:01:48.721Z,59.08
2023-02-28T05:04:16.195Z,59.32
2023-02-28T05:06:43.523Z,59.79
2023-02-28T05:09:12.954Z,59.51
2023-02-28T05:11:40.812Z,59.40
2023-02-28T05:14:15.721Z,59.56
2023-02-28T05:16:45.857Z,59.85
2023-02-28T05:19:12.395Z,59.56
2023-02-28T05:21:44.975Z,60.09
2023-02-28T05:24:16.245Z,59.92
2023-02-28T05:26:44.135Z,59.95
2023-02-28T05:29:11.450Z,59.94
2023-02-28T05:31:38.609Z,59.98
2023-02-28T05:34:05.461Z,60.26
2023-02-28T05:36:32.511Z,59.91
2023-02-28T05:38:59.221Z,59.64
2023-02-28T05:41:27.278Z,60.34
2023-02-28T05:43:54.018Z,60.10
2023-02-28T05:46:20.705Z,60.49
2023-02-28T05:48:49.050Z,60.06
2023-02-28T05:51:15.871Z,60.39
2023-02-28T05:53:42.417Z,60.32
2023-02-28T05:56:08.932Z,60.23
2023-02-28T05:58:35.830Z,60.35
2023-02-28T06:01:37.159Z,59.69
2023-02-28T06:04:05.677Z,60.19
2023-02-28T06:06:32.528Z,60.44
2023-02-28T06:08:59.213Z,60.83
2023-02-28T06:11:29.046Z,60.61
2023-02-28T06:14:03.135Z,60.63
2023-02-28T06:16:31.542Z,60.17
2023-02-28T06:19:00.324Z,60.24
2023-02-28T06:21:28.923Z,59.78
2023-02-28T06:23:57.214Z,60.07
2023-02-28T06:26:24.517Z,59.69
2023-02-28T06:28:51.022Z,60.03
2023-02-28T06:31:19.133Z,60.09
2023-02-28T06:33:46.617Z,59.84
2023-02-28T06:36:14.850Z,59.85
2023-02-28T06:38:42.041Z,59.42
2023-02-28T06:41:09.319Z,59.98
2023-02-28T06:43:39.647Z,59.69
2023-02-28T06:46:09.239Z,58.99
2023-02-28T06:48:36.521Z,59.72
2023-02-28T06:51:15.113Z,59.33
2023-02-28T06:53:41.716Z,59.75
2023-02-28T06:56:11.355Z,59.61
2023-02-28T06:58:38.665Z,60.42
2023-02-28T07:01:06.084Z,60.21
2023-02-28T07:03:34.473Z,60.26
2023-02-28T07:06:01.987Z,60.56
2023-02-28T07:08:28.681Z,60.48
2023-02-28T07:10:59.203Z,59.71
2023-02-28T07:13:26.096Z,60.20
2023-02-28T07:16:07.545Z,59.17
2023-02-28T07:18:34.810Z,60.14
2023-02-28T07:21:06.379Z,59.67
2023-02-28T07:23:33.236Z,60.33
2023-02-28T07:26:00.059Z,60.09
2023-02-28T07:28:26.747Z,60.41
2023-02-28T07:30:53.425Z,59.66
2023-02-28T07:33:19.974Z,60.31
2023-02-28T07:35:46.737Z,60.03
2023-02-28T07:38:14.665Z,59.83
2023-02-28T07:40:41.389Z,60.30
2023-02-28T07:43:07.884Z,59.95
2023-02-28T07:45:37.423Z,60.15
2023-02-28T07:48:04.096Z,60.52
2023-02-28T07:50:32.177Z,60.27
2023-02-28T07:52:59.473Z,60.76
2023-02-28T07:55:26.076Z,60.53
2023-02-28T07:57:52.641Z,60.29
2023-02-28T08:00:19.540Z,60.48
2023-02-28T08:02:46.038Z,60.81
2023-02-28T08:05:12.541Z,60.41
2023-02-28T08:07:39.061Z,60.98
2023-02-28T08:10:06.686Z,60.79
2023-02-28T08:12:33.455Z,60.48
2023-02-28T08:14:59.896Z,61.16
2023-02-28T08:17:26.413Z,61.13
2023-02-28T08:19:52.916Z,60.77
2023-02-28T08:22:19.377Z,61.15
2023-02-28T08:24:46.061Z,60.81
2023-02-28T08:27:12.694Z,60.74
2023-02-28T08:29:39.657Z,60.44
2023-02-28T08:32:12.389Z,60.21
2023-02-28T08:34:45.011Z,59.94
2023-02-28T08:37:12.854Z,59.79
2023-02-28T08:39:39.535Z,60.02
2023-02-28T08:42:07.727Z,59.53
2023-02-28T08:44:34.288Z,59.17
2023-02-28T08:47:00.805Z,59.26
2023-02-28T08:49:27.474Z,59.20
2023-02-28T08:51:55.107Z,58.97
2023-02-28T08:54:21.853Z,58.62
2023-02-28T08:56:49.283Z,58.56
2023-02-28T08:59:16.066Z,58.29
2023-02-28T09:01:44.420Z,58.23
2023-02-28T09:04:13.259Z,58.03
2023-02-28T09:06:41.628Z,57.67
2023-02-28T09:09:08.529Z,57.50
2023-02-28T09:11:36.095Z,57.16
2023-02-28T09:14:04.335Z,57.18
2023-02-28T09:16:34.104Z,56.98
2023-02-28T09:19:01.191Z,57.34
2023-02-28T09:21:28.347Z,57.40
2023-02-28T09:23:55.033Z,57.24
2023-02-28T09:26:32.421Z,55.71
2023-02-28T09:29:05.936Z,56.42
2023-02-28T09:31:32.626Z,56.74
2023-02-28T09:34:00.318Z,56.45
2023-02-28T09:36:41.771Z,56.55
2023-02-28T09:39:10.501Z,56.65
2023-02-28T09:41:53.019Z,54.08
2023-02-28T09:44:39.685Z,53.85
2023-02-28T09:47:20.048Z,53.73
2023-02-28T09:49:48.785Z,55.45
2023-02-28T09:52:20.310Z,55.16
2023-02-28T09:54:47.194Z,56.05
2023-02-28T09:57:29.659Z,53.75
2023-02-28T10:00:19.110Z,53.77
2023-02-28T10:03:16.759Z,53.79
2023-02-28T10:05:59.627Z,53.89
2023-02-28T10:08:37.219Z,53.56
2023-02-28T10:11:08.579Z,54.05
2023-02-28T10:13:52.024Z,52.83
2023-02-28T10:16:24.824Z,54.55
2023-02-28T10:19:05.476Z,52.84
2023-02-28T10:21:45.190Z,52.49
2023-02-28T10:24:24.177Z,53.69
2023-02-28T10:26:56.962Z,54.00
2023-02-28T10:29:23.661Z,55.14
2023-02-28T10:31:50.250Z,55.06
2023-02-28T10:34:16.864Z,54.81
2023-02-28T10:36:46.985Z,54.71
2023-02-28T10:39:35.100Z,52.12
2023-02-28T10:42:01.555Z,54.32
2023-02-28T10:44:28.171Z,53.98
2023-02-28T10:46:54.786Z,53.58
2023-02-28T10:49:30.159Z,52.60
2023-02-28T10:51:59.839Z,52.41
2023-02-28T10:54:36.965Z,51.10
2023-02-28T10:57:19.835Z,50.69
2023-02-28T10:59:47.262Z,52.79
2023-02-28T11:02:37.731Z,50.59
2023-02-28T11:05:30.844Z,50.30
2023-02-28T11:08:18.641Z,50.47
2023-02-28T11:10:48.368Z,51.47
2023-02-28T11:13:20.432Z,50.48
2023-02-28T11:15:56.196Z,49.87
2023-02-28T11:18:43.342Z,51.06
2023-02-28T11:21:17.400Z,51.50
2023-02-28T11:23:44.565Z,51.87
2023-02-28T11:26:12.292Z,51.31
2023-02-28T11:28:43.299Z,50.09
2023-02-28T11:31:12.862Z,50.08
2023-02-28T11:33:39.336Z,52.49
2023-02-28T11:36:21.155Z,49.83
2023-02-28T11:38:50.290Z,52.81
2023-02-28T11:41:16.778Z,52.56
2023-02-28T11:44:10.154Z,49.86
2023-02-28T11:46:47.300Z,50.26
2023-02-28T11:49:24.127Z,52.85
2023-02-28T11:52:16.727Z,50.54
2023-02-28T11:55:05.223Z,51.25
2023-02-28T11:57:51.421Z,56.50
2023-02-28T12:00:50.690Z,49.87
2023-02-28T12:03:17.301Z,53.94
2023-02-28T12:06:10.691Z,48.97
2023-02-28T12:08:43.074Z,53.42
2023-02-28T12:11:12.591Z,49.29
2023-02-28T12:14:00.056Z,46.41
2023-02-28T12:16:40.812Z,46.85
2023-02-28T12:19:13.516Z,45.84
2023-02-28T12:22:01.113Z,44.77
2023-02-28T12:24:32.567Z,44.21
2023-02-28T12:27:03.925Z,44.64
2023-02-28T12:29:35.947Z,42.53
2023-02-28T12:32:26.730Z,42.85
2023-02-28T12:34:58.624Z,41.70
2023-02-28T12:37:54.236Z,39.96
2023-02-28T12:40:27.904Z,42.74
2023-02-28T12:42:59.749Z,39.99
2023-02-28T12:45:35.746Z,40.38
2023-02-28T12:48:05.944Z,41.14
2023-02-28T12:50:35.298Z,41.56
2023-02-28T12:53:27.678Z,40.20
2023-02-28T12:56:35.591Z,40.58
2023-02-28T12:59:15.823Z,38.15
2023-02-28T13:02:33.595Z,38.09
2023-02-28T13:05:21.166Z,39.03
2023-02-28T13:08:00.184Z,38.67
2023-02-28T13:10:40.438Z,38.29
2023-02-28T13:13:07.594Z,40.67
2023-02-28T13:15:39.141Z,40.54
2023-02-28T13:18:05.683Z,40.03
2023-02-28T13:20:47.619Z,37.21
2023-02-28T13:23:59.262Z,37.00
2023-02-28T13:26:31.841Z,36.48
2023-02-28T13:29:05.362Z,36.33
2023-02-28T13:31:35.042Z,37.14
2023-02-28T13:34:16.292Z,35.01
2023-02-28T13:36:43.218Z,37.02
2023-02-28T13:39:37.779Z,35.71
2023-02-28T13:42:23.151Z,35.82
2023-02-28T13:45:05.035Z,36.07
2023-02-28T13:47:40.365Z,35.01
2023-02-28T13:50:25.213Z,36.30
2023-02-28T13:53:16.915Z,36.95
2023-02-28T13:55:52.965Z,36.67
2023-02-28T13:58:44.195Z,36.89
2023-02-28T14:01:32.516Z,37.20
2023-02-28T14:04:32.389Z,37.64
2023-02-28T14:07:01.146Z,39.37
2023-02-28T14:09:42.804Z,37.92
2023-02-28T14:12:46.674Z,37.85
2023-02-28T14:15:34.143Z,38.44
2023-02-28T14:18:11.699Z,38.83
2023-02-28T14:20:41.880Z,38.85
2023-02-28T14:23:51.419Z,39.36
2023-02-28T14:26:36.443Z,38.75
2023-02-28T14:29:49.090Z,39.02
2023-02-28T14:32:44.492Z,39.31
2023-02-28T14:35:49.141Z,39.17
2023-02-28T14:38:22.628Z,38.19
2023-02-28T14:40:52.179Z,39.30
2023-02-28T14:43:27.236Z,36.19
2023-02-28T14:45:59.691Z,35.73
2023-02-28T14:48:27.784Z,38.60
2023-02-28T14:50:58.178Z,36.81
2023-02-28T14:53:29.295Z,35.71
2023-02-28T14:55:56.013Z,37.58
2023-02-28T14:58:29.651Z,36.73
2023-02-28T15:00:58.638Z,35.08
2023-02-28T15:03:34.555Z,33.14
2023-02-28T15:08:49.093Z,35.66
2023-02-28T15:11:20.358Z,34.57
2023-02-28T15:13:51.451Z,36.21
2023-02-28T15:16:23.319Z,35.59
2023-02-28T15:19:11.547Z,33.08
2023-02-28T15:21:45.846Z,32.44
2023-02-28T15:24:33.644Z,34.45
2023-02-28T15:27:04.702Z,33.34
2023-02-28T15:29:38.245Z,32.74
2023-02-28T15:32:07.468Z,33.29
2023-02-28T15:34:43.470Z,31.67
2023-02-28T15:37:25.348Z,31.12
2023-02-28T15:39:52.558Z,32.10
2023-02-28T15:42:21.533Z,31.80
2023-02-28T15:44:48.655Z,32.48
2023-02-28T15:47:28.148Z,31.37
2023-02-28T15:50:00.280Z,31.59
2023-02-28T15:52:38.630Z,32.92
2023-02-28T15:55:09.992Z,33.20
2023-02-28T15:57:36.873Z,34.61
2023-02-28T16:00:07.637Z,34.66
2023-02-28T16:02:36.393Z,35.45
2023-02-28T16:05:21.773Z,35.42
2023-02-28T16:07:49.852Z,36.48
2023-02-28T16:10:16.534Z,36.95
2023-02-28T16:12:43.247Z,37.13
2023-02-28T16:15:20.211Z,36.26
2023-02-28T16:17:47.583Z,37.83
2023-02-28T16:20:19.657Z,37.05
2023-02-28T16:22:46.602Z,38.30
2023-02-28T16:25:18.447Z,37.65
2023-02-28T16:27:48.568Z,38.44
2023-02-28T16:30:27.986Z,38.25
2023-02-28T16:32:56.572Z,38.83
2023-02-28T16:35:23.693Z,39.44
2023-02-28T16:37:52.500Z,39.66
2023-02-28T16:40:24.048Z,39.95
2023-02-28T16:42:53.558Z,40.15
2023-02-28T16:45:24.430Z,39.73
2023-02-28T16:47:51.369Z,40.47
2023-02-28T16:50:20.401Z,40.39
2023-02-28T16:52:47.599Z,40.61
2023-02-28T16:55:14.151Z,40.92
2023-02-28T16:57:41.439Z,40.76
2023-02-28T17:00:12.008Z,41.12
2023-02-28T17:02:41.187Z,41.30
2023-02-28T17:05:11.408Z,41.25
2023-02-28T17:07:37.870Z,41.58
2023-02-28T17:10:14.088Z,40.91
2023-02-28T17:12:40.493Z,42.00
2023-02-28T17:15:07.751Z,42.24
2023-02-28T17:17:34.505Z,42.24
2023-02-28T17:20:01.081Z,42.55
2023-02-28T17:22:27.480Z,42.75
2023-02-28T17:24:56.729Z,42.54
2023-02-28T17:27:23.288Z,42.95
2023-02-28T17:29:49.808Z,43.04
2023-02-28T17:32:18.393Z,42.99
2023-02-28T17:34:46.980Z,42.82
2023-02-28T17:37:14.161Z,43.22
2023-02-28T17:39:40.829Z,43.22
2023-02-28T17:42:07.385Z,43.29
2023-02-28T17:44:33.909Z,43.25
2023-02-28T17:47:00.683Z,43.47
2023-02-28T17:49:27.290Z,43.77
2023-02-28T17:51:53.780Z,43.71
2023-02-28T17:54:20.904Z,44.12
2023-02-28T17:56:47.590Z,43.92
2023-02-28T17:59:14.880Z,43.98
2023-02-28T18:01:41.461Z,44.08
2023-02-28T18:04:08.144Z,43.79
2023-02-28T18:06:47.180Z,43.36
2023-02-28T18:09:15.814Z,43.94
2023-02-28T18:11:45.955Z,44.28
2023-02-28T18:14:12.962Z,43.95
2023-02-28T18:16:39.543Z,44.29
2023-02-28T18:19:07.046Z,44.33
2023-02-28T18:21:33.595Z,44.72
2023-02-28T18:24:00.114Z,44.46
2023-02-28T18:26:26.686Z,44.58
2023-02-28T18:28:53.171Z,44.48
2023-02-28T18:31:20.891Z,44.74
2023-02-28T18:33:52.373Z,44.10
2023-02-28T18:36:20.979Z,44.64
2023-02-28T18:38:48.534Z,44.93
2023-02-28T18:41:15.056Z,44.98
2023-02-28T18:43:41.554Z,44.96
2023-02-28T18:46:11.876Z,45.28
2023-02-28T18:48:38.711Z,45.21
2023-02-28T18:51:09.767Z,44.63
2023-02-28T18:53:38.025Z,45.29
2023-02-28T18:56:06.214Z,45.58
2023-02-28T18:58:33.559Z,45.49
2023-02-28T19:01:01.325Z,45.47
2023-02-28T19:03:27.962Z,45.54
2023-02-28T19:05:56.082Z,45.77
2023-02-28T19:08:23.210Z,45.76
2023-02-28T19:10:49.907Z,45.61
2023-02-28T19:13:16.724Z,45.95
2023-02-28T19:15:43.270Z,45.85
2023-02-28T19:18:09.879Z,46.34
2023-02-28T19:20:37.564Z,45.88
2023-02-28T19:23:04.448Z,46.27
2023-02-28T19:25:31.015Z,46.42
2023-02-28T19:27:57.716Z,46.04
2023-02-28T19:30:24.249Z,46.49
2023-02-28T19:32:50.930Z,46.52
2023-02-28T19:35:17.520Z,46.45
2023-02-28T19:37:44.067Z,46.52
2023-02-28T19:40:13.485Z,46.70
2023-02-28T19:42:39.975Z,46.82
2023-02-28T19:45:10.006Z,46.99
2023-02-28T19:47:36.871Z,46.95
2023-02-28T19:50:03.489Z,46.89
2023-02-28T19:52:29.997Z,46.98
2023-02-28T19:54:56.550Z,46.83
2023-02-28T19:57:23.090Z,46.95
2023-02-28T19:59:51.114Z,46.90
2023-02-28T20:02:22.063Z,46.79
2023-02-28T20:04:50.287Z,47.03
2023-02-28T20:07:20.221Z,47.09
2023-02-28T20:09:48.032Z,47.47
2023-02-28T20:12:24.209Z,47.16
2023-02-28T20:14:51.804Z,47.16
2023-02-28T20:17:18.802Z,47.27
2023-02-28T20:19:45.553Z,47.40
2023-02-28T20:22:12.138Z,47.49
2023-02-28T20:24:38.750Z,47.53
2023-02-28T20:27:05.593Z,47.71
2023-02-28T20:29:33.851Z,47.70
2023-02-28T20:32:00.590Z,47.64
2023-02-28T20:34:27.078Z,47.65
2023-02-28T20:36:54.006Z,47.88
2023-02-28T20:39:20.528Z,47.93
2023-02-28T20:41:47.300Z,48.22
2023-02-28T20:44:14.052Z,48.15
2023-02-28T20:46:41.603Z,48.21
2023-02-28T20:49:08.200Z,47.94
2023-02-28T20:51:34.793Z,48.10
2023-02-28T20:54:01.288Z,47.97
2023-02-28T20:56:28.290Z,48.28
2023-02-28T20:58:58.107Z,48.04
2023-02-28T21:01:27.670Z,48.21
2023-02-28T21:04:08.481Z,47.74
2023-02-28T21:06:38.499Z,48.11
2023-02-28T21:09:07.868Z,48.31
2023-02-28T21:11:37.131Z,48.58
2023-02-28T21:14:11.236Z,48.21
2023-02-28T21:16:38.247Z,48.45
2023-02-28T21:19:05.263Z,48.52
2023-02-28T21:21:35.585Z,48.53
2023-02-28T21:24:02.090Z,48.55
2023-02-28T21:26:29.438Z,48.91
2023-02-28T21:29:01.897Z,48.98
2023-02-28T21:31:31.547Z,48.60
2023-02-28T21:33:59.752Z,48.93
2023-02-28T21:36:34.959Z,48.72
2023-02-28T21:39:08.140Z,48.48
2023-02-28T21:41:35.668Z,49.07
2023-02-28T21:44:02.481Z,48.99
2023-02-28T21:46:30.942Z,49.34
2023-02-28T21:48:58.234Z,49.42
2023-02-28T21:51:33.256Z,49.08
2023-02-28T21:54:01.250Z,49.49
2023-02-28T21:56:31.118Z,49.33
2023-02-28T21:59:01.131Z,49.51
2023-02-28T22:01:32.416Z,49.38
2023-02-28T22:03:59.544Z,49.45
2023-02-28T22:06:29.406Z,49.81
2023-02-28T22:08:58.715Z,49.62
2023-02-28T22:11:26.274Z,49.88
2023-02-28T22:13:56.125Z,50.06
2023-02-28T22:16:24.742Z,50.15
2023-02-28T22:18:51.218Z,50.14
2023-02-28T22:21:19.040Z,50.20
2023-02-28T22:23:46.197Z,50.14
2023-02-28T22:26:18.947Z,49.86
2023-02-28T22:28:45.480Z,50.26
2023-02-28T22:31:21.573Z,50.04
2023-02-28T22:33:51.786Z,50.07
2023-02-28T22:36:19.823Z,50.34
2023-02-28T22:38:47.339Z,50.23
2023-02-28T22:41:14.473Z,50.25
2023-02-28T22:43:42.276Z,50.37
2023-02-28T22:46:11.023Z,50.15
2023-02-28T22:48:37.564Z,50.32
2023-02-28T22:51:12.635Z,49.83
2023-02-28T22:53:39.568Z,50.28
2023-02-28T22:56:07.423Z,50.36
2023-02-28T22:58:34.026Z,50.42
2023-02-28T23:01:09.920Z,49.84
2023-02-28T23:03:36.785Z,50.33
2023-02-28T23:06:20.450Z,50.09
2023-02-28T23:08:47.416Z,50.37
2023-02-28T23:11:23.450Z,49.95
2023-02-28T23:13:59.926Z,50.44
2023-02-28T23:16:37.335Z,49.79
2023-02-28T23:19:07.290Z,50.47
2023-02-28T23:21:35.097Z,50.50
2023-02-28T23:24:02.984Z,50.62
2023-02-28T23:26:31.767Z,50.67
2023-02-28T23:28:59.395Z,50.72
2023-02-28T23:31:25.890Z,50.61
2023-02-28T23:33:52.520Z,50.67
2023-02-28T23:36:19.276Z,50.97
2023-02-28T23:38:49.108Z,50.92
2023-02-28T23:41:16.126Z,51.07
2023-02-28T23:43:42.786Z,51.04
2023-02-28T23:46:11.493Z,51.06
2023-02-28T23:48:38.579Z,51.16
2023-02-28T23:51:08.617Z,50.92
2023-02-28T23:53:38.152Z,51.21
2023-02-28T23:56:07.588Z,50.88
2023-02-28T23:58:34.636Z,51.32
